< < Back
Terminal Aerodrome Forecast


Current Version              Previous Versions:   1  2  3  4  5  6  7  8  9  

Terminal Aerodrome Forecast

569
FTUS42 KJAX 250500
TAFJAX
TAF
KJAX 250538Z 2506/2606 24004KT P6SM FEW040 SCT250
     FM251300 26008KT P6SM FEW020 SCT250
     FM251700 24006KT P6SM VCTS SCT040CB BKN100 BKN250
     FM260100 23006KT P6SM SCT040 SCT100 BKN250=



Latest METAR

029
SAUS80 KWBC 251100
MTRJAX
METAR KJAX 251056Z 26004KT 9SM FEW030 FEW150 SCT250 23/23 A3004 RMK AO2
SLP171 CB DSNT SW T02330233 $


USA.gov is the U.S. government's official web portal to all federal, state and local government web resources and services.